Burlington, Indiana
Current Conditions -  °F | °C
As of 10:15 AM on Wednesday 26 Nov 2014 (Local Time) from KGGP Reporting Station
Overcast Overcast  
Wind Chill: -7°   Ceiling: 1400
Heat Index: -3°   Visibility: 10mi
Dew Point: -7°   Wind: 7mph
Humidity: 74%   Direction: 90°E
Pressure: 30.17"   Gusts: NA
Location:  40.48°N, 86.39°W
Report Text: KGGP 261515Z AUTO 09006KT 10SM OVC014 M03/M07 A3017 RMK AO2
Loading
Personal Weather Stations






























Interactive Weather Map New forecast layout! Learn more

10-Day Weather Forecast

Advertisements
Track Severe Weather on mobile